sensor_id;sensor_type;location;lat;lon;timestamp;P1;durP1;ratioP1;P2;durP2;ratioP2
14778;SDS011;7481;53.750;10.570;2023-11-21T00:00:39;22.60;;;14.07;;
14778;SDS011;7481;53.750;10.570;2023-11-21T00:05:03;21.77;;;14.17;;
14778;SDS011;7481;53.750;10.570;2023-11-21T00:09:27;22.17;;;14.03;;
14778;SDS011;7481;53.750;10.570;2023-11-21T00:13:51;22.57;;;13.87;;
14778;SDS011;7481;53.750;10.570;2023-11-21T00:18:15;23.60;;;14.73;;
14778;SDS011;7481;53.750;10.570;2023-11-21T00:22:38;20.23;;;12.73;;
14778;SDS011;7481;53.750;10.570;2023-11-21T00:27:02;19.07;;;12.77;;
14778;SDS011;7481;53.750;10.570;2023-11-21T00:31:27;19.10;;;12.77;;
14778;SDS011;7481;53.750;10.570;2023-11-21T00:35:53;19.43;;;13.53;;
14778;SDS011;7481;53.750;10.570;2023-11-21T00:40:17;23.03;;;13.93;;
14778;SDS011;7481;53.750;10.570;2023-11-21T00:44:45;17.40;;;12.37;;
14778;SDS011;7481;53.750;10.570;2023-11-21T00:49:09;18.47;;;11.57;;
14778;SDS011;7481;53.750;10.570;2023-11-21T00:53:31;17.47;;;10.40;;
14778;SDS011;7481;53.750;10.570;2023-11-21T00:57:56;13.70;;;9.77;;
14778;SDS011;7481;53.750;10.570;2023-11-21T01:02:20;12.57;;;9.17;;
14778;SDS011;7481;53.750;10.570;2023-11-21T01:06:45;13.63;;;8.83;;
14778;SDS011;7481;53.750;10.570;2023-11-21T01:11:10;13.20;;;9.00;;
14778;SDS011;7481;53.750;10.570;2023-11-21T01:15:35;13.07;;;9.17;;
14778;SDS011;7481;53.750;10.570;2023-11-21T01:19:58;12.17;;;9.27;;
14778;SDS011;7481;53.750;10.570;2023-11-21T01:24:23;12.73;;;8.17;;
14778;SDS011;7481;53.750;10.570;2023-11-21T01:28:46;11.00;;;8.53;;
14778;SDS011;7481;53.750;10.570;2023-11-21T01:33:12;12.30;;;8.47;;
14778;SDS011;7481;53.750;10.570;2023-11-21T01:37:38;11.67;;;8.07;;
14778;SDS011;7481;53.750;10.570;2023-11-21T01:42:00;11.33;;;8.33;;
14778;SDS011;7481;53.750;10.570;2023-11-21T01:46:23;11.60;;;7.80;;
14778;SDS011;7481;53.750;10.570;2023-11-21T01:50:47;12.70;;;7.97;;
14778;SDS011;7481;53.750;10.570;2023-11-21T01:55:11;11.03;;;8.00;;
14778;SDS011;7481;53.750;10.570;2023-11-21T01:59:48;15.40;;;9.80;;
14778;SDS011;7481;53.750;10.570;2023-11-21T02:04:12;13.83;;;10.10;;
14778;SDS011;7481;53.750;10.570;2023-11-21T02:08:36;15.07;;;9.87;;
14778;SDS011;7481;53.750;10.570;2023-11-21T02:12:59;13.73;;;9.00;;
14778;SDS011;7481;53.750;10.570;2023-11-21T02:17:25;12.60;;;9.27;;
14778;SDS011;7481;53.750;10.570;2023-11-21T02:21:50;12.67;;;9.60;;
14778;SDS011;7481;53.750;10.570;2023-11-21T02:26:17;13.07;;;9.43;;
14778;SDS011;7481;53.750;10.570;2023-11-21T02:30:43;12.20;;;8.90;;
14778;SDS011;7481;53.750;10.570;2023-11-21T02:35:10;13.57;;;8.50;;
14778;SDS011;7481;53.750;10.570;2023-11-21T02:39:34;12.17;;;8.10;;
14778;SDS011;7481;53.750;10.570;2023-11-21T02:43:58;11.57;;;8.80;;
14778;SDS011;7481;53.750;10.570;2023-11-21T02:48:22;11.70;;;7.90;;
14778;SDS011;7481;53.750;10.570;2023-11-21T02:52:48;12.00;;;8.33;;
14778;SDS011;7481;53.750;10.570;2023-11-21T02:57:12;12.20;;;8.17;;
14778;SDS011;7481;53.750;10.570;2023-11-21T03:01:36;12.73;;;8.57;;
14778;SDS011;7481;53.750;10.570;2023-11-21T03:05:59;11.73;;;8.33;;
14778;SDS011;7481;53.750;10.570;2023-11-21T03:10:25;10.37;;;7.77;;
14778;SDS011;7481;53.750;10.570;2023-11-21T03:14:49;10.60;;;7.63;;
14778;SDS011;7481;53.750;10.570;2023-11-21T03:19:13;9.70;;;7.47;;
14778;SDS011;7481;53.750;10.570;2023-11-21T03:23:37;11.67;;;7.70;;
14778;SDS011;7481;53.750;10.570;2023-11-21T03:28:01;10.83;;;8.00;;
14778;SDS011;7481;53.750;10.570;2023-11-21T03:32:26;13.50;;;7.63;;
14778;SDS011;7481;53.750;10.570;2023-11-21T03:36:50;11.53;;;7.70;;
14778;SDS011;7481;53.750;10.570;2023-11-21T03:41:12;9.43;;;7.20;;
14778;SDS011;7481;53.750;10.570;2023-11-21T03:45:37;12.93;;;6.90;;
14778;SDS011;7481;53.750;10.570;2023-11-21T03:50:01;10.57;;;7.43;;
14778;SDS011;7481;53.750;10.570;2023-11-21T03:54:25;9.93;;;7.07;;
14778;SDS011;7481;53.750;10.570;2023-11-21T03:58:49;11.47;;;7.23;;
14778;SDS011;7481;53.750;10.570;2023-11-21T04:03:13;12.00;;;7.80;;
14778;SDS011;7481;53.750;10.570;2023-11-21T04:07:38;11.53;;;8.13;;
14778;SDS011;7481;53.750;10.570;2023-11-21T04:12:01;11.70;;;8.27;;
14778;SDS011;7481;53.750;10.570;2023-11-21T04:16:25;10.80;;;8.50;;
14778;SDS011;7481;53.750;10.570;2023-11-21T04:20:49;11.47;;;8.50;;
14778;SDS011;7481;53.750;10.570;2023-11-21T04:25:16;11.73;;;7.77;;
14778;SDS011;7481;53.750;10.570;2023-11-21T04:29:43;11.03;;;8.23;;
14778;SDS011;7481;53.750;10.570;2023-11-21T04:34:08;12.03;;;8.67;;
14778;SDS011;7481;53.750;10.570;2023-11-21T04:38:32;12.37;;;8.17;;
14778;SDS011;7481;53.750;10.570;2023-11-21T04:42:57;11.80;;;8.20;;
14778;SDS011;7481;53.750;10.570;2023-11-21T04:47:24;11.03;;;7.80;;
14778;SDS011;7481;53.750;10.570;2023-11-21T04:51:49;13.90;;;9.33;;
14778;SDS011;7481;53.750;10.570;2023-11-21T04:56:13;11.77;;;8.77;;
14778;SDS011;7481;53.750;10.570;2023-11-21T05:00:38;12.63;;;8.73;;
14778;SDS011;7481;53.750;10.570;2023-11-21T05:05:01;10.57;;;8.23;;
14778;SDS011;7481;53.750;10.570;2023-11-21T05:09:28;11.07;;;8.70;;
14778;SDS011;7481;53.750;10.570;2023-11-21T05:13:55;11.70;;;8.10;;
14778;SDS011;7481;53.750;10.570;2023-11-21T05:18:21;12.13;;;7.90;;
14778;SDS011;7481;53.750;10.570;2023-11-21T05:22:45;13.60;;;8.37;;
14778;SDS011;7481;53.750;10.570;2023-11-21T05:27:10;12.10;;;7.33;;
14778;SDS011;7481;53.750;10.570;2023-11-21T05:31:35;8.50;;;6.40;;
14778;SDS011;7481;53.750;10.570;2023-11-21T05:36:00;10.00;;;6.90;;
14778;SDS011;7481;53.750;10.570;2023-11-21T05:40:25;9.47;;;7.40;;
14778;SDS011;7481;53.750;10.570;2023-11-21T05:44:52;10.47;;;7.13;;
14778;SDS011;7481;53.750;10.570;2023-11-21T05:49:20;10.50;;;7.47;;
14778;SDS011;7481;53.750;10.570;2023-11-21T05:53:45;11.93;;;9.50;;
14778;SDS011;7481;53.750;10.570;2023-11-21T05:58:10;11.03;;;8.27;;
14778;SDS011;7481;53.750;10.570;2023-11-21T06:02:37;11.93;;;8.98;;
14778;SDS011;7481;53.750;10.570;2023-11-21T06:07:00;10.13;;;7.50;;
14778;SDS011;7481;53.750;10.570;2023-11-21T06:11:24;10.20;;;7.20;;
14778;SDS011;7481;53.750;10.570;2023-11-21T06:15:48;9.20;;;6.83;;
14778;SDS011;7481;53.750;10.570;2023-11-21T06:20:13;8.53;;;6.60;;
14778;SDS011;7481;53.750;10.570;2023-11-21T06:24:38;9.97;;;6.60;;
14778;SDS011;7481;53.750;10.570;2023-11-21T06:29:05;9.13;;;6.37;;
14778;SDS011;7481;53.750;10.570;2023-11-21T06:33:33;8.77;;;6.30;;
14778;SDS011;7481;53.750;10.570;2023-11-21T06:37:59;8.43;;;6.37;;
14778;SDS011;7481;53.750;10.570;2023-11-21T06:42:24;8.13;;;5.43;;
14778;SDS011;7481;53.750;10.570;2023-11-21T06:46:49;7.30;;;5.60;;
14778;SDS011;7481;53.750;10.570;2023-11-21T06:51:16;7.20;;;5.63;;
14778;SDS011;7481;53.750;10.570;2023-11-21T06:55:40;8.10;;;5.87;;
14778;SDS011;7481;53.750;10.570;2023-11-21T07:00:04;7.23;;;5.50;;
14778;SDS011;7481;53.750;10.570;2023-11-21T07:04:30;7.53;;;5.63;;
14778;SDS011;7481;53.750;10.570;2023-11-21T07:08:54;7.33;;;5.27;;
14778;SDS011;7481;53.750;10.570;2023-11-21T07:13:19;7.80;;;5.47;;
14778;SDS011;7481;53.750;10.570;2023-11-21T07:17:44;7.93;;;5.00;;
14778;SDS011;7481;53.750;10.570;2023-11-21T07:22:09;6.23;;;4.73;;
14778;SDS011;7481;53.750;10.570;2023-11-21T07:26:34;6.17;;;4.63;;
14778;SDS011;7481;53.750;10.570;2023-11-21T07:30:59;6.73;;;4.57;;
14778;SDS011;7481;53.750;10.570;2023-11-21T07:35:23;6.33;;;4.20;;
14778;SDS011;7481;53.750;10.570;2023-11-21T07:39:48;5.03;;;4.03;;
14778;SDS011;7481;53.750;10.570;2023-11-21T07:44:11;7.10;;;4.77;;
14778;SDS011;7481;53.750;10.570;2023-11-21T07:48:35;7.40;;;4.80;;
14778;SDS011;7481;53.750;10.570;2023-11-21T07:53:02;4.83;;;4.10;;
14778;SDS011;7481;53.750;10.570;2023-11-21T07:57:28;8.33;;;4.13;;
14778;SDS011;7481;53.750;10.570;2023-11-21T08:01:53;5.57;;;4.50;;
14778;SDS011;7481;53.750;10.570;2023-11-21T08:06:17;5.67;;;4.30;;
14778;SDS011;7481;53.750;10.570;2023-11-21T08:10:40;4.37;;;3.60;;
14778;SDS011;7481;53.750;10.570;2023-11-21T08:15:06;4.33;;;3.73;;
14778;SDS011;7481;53.750;10.570;2023-11-21T08:19:32;6.80;;;3.73;;
14778;SDS011;7481;53.750;10.570;2023-11-21T08:23:56;4.67;;;3.30;;
14778;SDS011;7481;53.750;10.570;2023-11-21T08:28:20;7.70;;;4.03;;
14778;SDS011;7481;53.750;10.570;2023-11-21T08:32:48;5.03;;;4.33;;
14778;SDS011;7481;53.750;10.570;2023-11-21T08:37:14;4.53;;;3.53;;
14778;SDS011;7481;53.750;10.570;2023-11-21T08:41:39;9.03;;;4.57;;
14778;SDS011;7481;53.750;10.570;2023-11-21T08:46:01;5.50;;;4.00;;
14778;SDS011;7481;53.750;10.570;2023-11-21T08:50:26;9.63;;;4.33;;
14778;SDS011;7481;53.750;10.570;2023-11-21T08:54:49;5.80;;;4.27;;
14778;SDS011;7481;53.750;10.570;2023-11-21T08:59:17;4.30;;;3.30;;
14778;SDS011;7481;53.750;10.570;2023-11-21T09:03:42;6.50;;;3.40;;
14778;SDS011;7481;53.750;10.570;2023-11-21T09:08:06;4.90;;;3.80;;
14778;SDS011;7481;53.750;10.570;2023-11-21T09:12:30;4.47;;;3.93;;
14778;SDS011;7481;53.750;10.570;2023-11-21T09:16:54;7.47;;;4.93;;
14778;SDS011;7481;53.750;10.570;2023-11-21T09:21:18;4.97;;;4.03;;
14778;SDS011;7481;53.750;10.570;2023-11-21T09:25:42;6.00;;;4.43;;
14778;SDS011;7481;53.750;10.570;2023-11-21T09:30:08;7.40;;;4.40;;
14778;SDS011;7481;53.750;10.570;2023-11-21T09:34:34;5.67;;;4.37;;
14778;SDS011;7481;53.750;10.570;2023-11-21T09:39:01;5.23;;;4.10;;
14778;SDS011;7481;53.750;10.570;2023-11-21T09:43:28;9.67;;;4.90;;
14778;SDS011;7481;53.750;10.570;2023-11-21T09:47:54;5.90;;;4.43;;
14778;SDS011;7481;53.750;10.570;2023-11-21T09:52:24;5.23;;;4.40;;
14778;SDS011;7481;53.750;10.570;2023-11-21T09:56:49;8.13;;;4.47;;
14778;SDS011;7481;53.750;10.570;2023-11-21T10:01:13;6.13;;;4.63;;
14778;SDS011;7481;53.750;10.570;2023-11-21T10:05:38;6.20;;;4.43;;
14778;SDS011;7481;53.750;10.570;2023-11-21T10:10:02;6.10;;;4.03;;
14778;SDS011;7481;53.750;10.570;2023-11-21T10:14:26;5.63;;;4.30;;
14778;SDS011;7481;53.750;10.570;2023-11-21T10:18:52;6.90;;;4.10;;
14778;SDS011;7481;53.750;10.570;2023-11-21T10:23:31;5.20;;;3.70;;
14778;SDS011;7481;53.750;10.570;2023-11-21T10:28:00;5.03;;;3.77;;
14778;SDS011;7481;53.750;10.570;2023-11-21T10:32:29;6.50;;;4.27;;
14778;SDS011;7481;53.750;10.570;2023-11-21T10:36:54;5.77;;;4.10;;
14778;SDS011;7481;53.750;10.570;2023-11-21T10:41:20;5.10;;;3.80;;
14778;SDS011;7481;53.750;10.570;2023-11-21T10:45:45;5.40;;;4.27;;
14778;SDS011;7481;53.750;10.570;2023-11-21T10:50:09;5.03;;;3.73;;
14778;SDS011;7481;53.750;10.570;2023-11-21T10:54:33;4.80;;;3.60;;
14778;SDS011;7481;53.750;10.570;2023-11-21T10:58:58;5.03;;;3.93;;
14778;SDS011;7481;53.750;10.570;2023-11-21T11:03:22;7.30;;;4.33;;
14778;SDS011;7481;53.750;10.570;2023-11-21T11:07:50;4.97;;;4.20;;
14778;SDS011;7481;53.750;10.570;2023-11-21T11:12:21;5.17;;;4.00;;
14778;SDS011;7481;53.750;10.570;2023-11-21T11:16:46;4.60;;;3.93;;
14778;SDS011;7481;53.750;10.570;2023-11-21T11:21:22;4.83;;;3.80;;
14778;SDS011;7481;53.750;10.570;2023-11-21T11:34:44;5.40;;;4.10;;
14778;SDS011;7481;53.750;10.570;2023-11-21T11:39:28;5.83;;;3.90;;
14778;SDS011;7481;53.750;10.570;2023-11-21T11:43:53;4.67;;;3.90;;
14778;SDS011;7481;53.750;10.570;2023-11-21T11:48:18;6.63;;;4.47;;
14778;SDS011;7481;53.750;10.570;2023-11-21T11:52:42;6.00;;;4.43;;
14778;SDS011;7481;53.750;10.570;2023-11-21T11:57:07;8.40;;;4.37;;
14778;SDS011;7481;53.750;10.570;2023-11-21T12:01:33;5.00;;;4.10;;
14778;SDS011;7481;53.750;10.570;2023-11-21T12:05:57;5.27;;;4.17;;
14778;SDS011;7481;53.750;10.570;2023-11-21T12:10:21;5.33;;;3.93;;
14778;SDS011;7481;53.750;10.570;2023-11-21T12:14:47;8.13;;;4.20;;
14778;SDS011;7481;53.750;10.570;2023-11-21T12:19:11;5.27;;;4.33;;
14778;SDS011;7481;53.750;10.570;2023-11-21T12:23:34;5.43;;;4.10;;
14778;SDS011;7481;53.750;10.570;2023-11-21T12:27:57;6.53;;;4.17;;
14778;SDS011;7481;53.750;10.570;2023-11-21T12:32:25;7.43;;;4.80;;
14778;SDS011;7481;53.750;10.570;2023-11-21T12:36:49;7.00;;;4.40;;
14778;SDS011;7481;53.750;10.570;2023-11-21T12:41:16;6.13;;;3.93;;
14778;SDS011;7481;53.750;10.570;2023-11-21T12:45:40;5.90;;;4.20;;
14778;SDS011;7481;53.750;10.570;2023-11-21T12:50:03;6.80;;;4.23;;
14778;SDS011;7481;53.750;10.570;2023-11-21T12:54:29;6.77;;;3.80;;
14778;SDS011;7481;53.750;10.570;2023-11-21T12:58:53;5.50;;;3.37;;
14778;SDS011;7481;53.750;10.570;2023-11-21T13:03:19;5.13;;;3.87;;
14778;SDS011;7481;53.750;10.570;2023-11-21T13:07:48;4.57;;;3.87;;
14778;SDS011;7481;53.750;10.570;2023-11-21T13:12:12;6.47;;;4.10;;
14778;SDS011;7481;53.750;10.570;2023-11-21T13:16:40;4.20;;;3.80;;
14778;SDS011;7481;53.750;10.570;2023-11-21T13:21:08;5.20;;;3.50;;
14778;SDS011;7481;53.750;10.570;2023-11-21T13:25:36;5.33;;;3.80;;
14778;SDS011;7481;53.750;10.570;2023-11-21T13:29:59;4.60;;;3.40;;
14778;SDS011;7481;53.750;10.570;2023-11-21T13:34:22;4.73;;;3.30;;
14778;SDS011;7481;53.750;10.570;2023-11-21T13:38:54;5.07;;;3.67;;
14778;SDS011;7481;53.750;10.570;2023-11-21T13:43:20;5.87;;;3.40;;
14778;SDS011;7481;53.750;10.570;2023-11-21T13:47:44;4.30;;;3.47;;
14778;SDS011;7481;53.750;10.570;2023-11-21T13:52:08;3.93;;;2.93;;
14778;SDS011;7481;53.750;10.570;2023-11-21T13:56:37;4.80;;;3.30;;
14778;SDS011;7481;53.750;10.570;2023-11-21T14:01:03;4.07;;;2.97;;
14778;SDS011;7481;53.750;10.570;2023-11-21T14:05:35;4.03;;;3.10;;
14778;SDS011;7481;53.750;10.570;2023-11-21T14:09:59;5.10;;;3.27;;
14778;SDS011;7481;53.750;10.570;2023-11-21T14:14:26;4.47;;;3.03;;
14778;SDS011;7481;53.750;10.570;2023-11-21T14:18:50;5.53;;;2.90;;
14778;SDS011;7481;53.750;10.570;2023-11-21T14:23:24;8.57;;;3.00;;
14778;SDS011;7481;53.750;10.570;2023-11-21T14:27:47;5.97;;;3.53;;
14778;SDS011;7481;53.750;10.570;2023-11-21T14:32:11;3.67;;;2.70;;
14778;SDS011;7481;53.750;10.570;2023-11-21T14:36:37;3.80;;;2.47;;
14778;SDS011;7481;53.750;10.570;2023-11-21T14:41:02;3.13;;;2.40;;
14778;SDS011;7481;53.750;10.570;2023-11-21T14:45:26;3.83;;;2.40;;
14778;SDS011;7481;53.750;10.570;2023-11-21T14:49:51;5.27;;;2.60;;
14778;SDS011;7481;53.750;10.570;2023-11-21T14:54:15;4.93;;;3.23;;
14778;SDS011;7481;53.750;10.570;2023-11-21T14:58:47;4.03;;;2.60;;
14778;SDS011;7481;53.750;10.570;2023-11-21T15:03:12;5.13;;;2.57;;
14778;SDS011;7481;53.750;10.570;2023-11-21T15:08:05;4.43;;;2.47;;
14778;SDS011;7481;53.750;10.570;2023-11-21T15:12:48;3.87;;;2.73;;
14778;SDS011;7481;53.750;10.570;2023-11-21T15:17:12;6.00;;;2.63;;
14778;SDS011;7481;53.750;10.570;2023-11-21T15:21:44;3.73;;;2.80;;
14778;SDS011;7481;53.750;10.570;2023-11-21T15:26:10;6.40;;;3.67;;
14778;SDS011;7481;53.750;10.570;2023-11-21T15:30:36;3.70;;;2.60;;
14778;SDS011;7481;53.750;10.570;2023-11-21T15:35:02;3.80;;;2.87;;
14778;SDS011;7481;53.750;10.570;2023-11-21T15:39:26;4.90;;;3.70;;
14778;SDS011;7481;53.750;10.570;2023-11-21T15:43:54;4.28;;;2.90;;
14778;SDS011;7481;53.750;10.570;2023-11-21T15:48:19;5.33;;;2.77;;
14778;SDS011;7481;53.750;10.570;2023-11-21T15:52:45;3.70;;;2.60;;
14778;SDS011;7481;53.750;10.570;2023-11-21T15:57:18;3.03;;;2.53;;
14778;SDS011;7481;53.750;10.570;2023-11-21T16:01:45;5.13;;;2.90;;
14778;SDS011;7481;53.750;10.570;2023-11-21T16:06:11;2.77;;;2.53;;
14778;SDS011;7481;53.750;10.570;2023-11-21T16:10:35;3.67;;;3.13;;
14778;SDS011;7481;53.750;10.570;2023-11-21T16:14:59;4.33;;;2.93;;
14778;SDS011;7481;53.750;10.570;2023-11-21T16:19:30;4.83;;;2.87;;
14778;SDS011;7481;53.750;10.570;2023-11-21T16:23:54;3.53;;;2.60;;
14778;SDS011;7481;53.750;10.570;2023-11-21T16:28:23;5.70;;;2.83;;
14778;SDS011;7481;53.750;10.570;2023-11-21T16:32:47;4.07;;;3.10;;
14778;SDS011;7481;53.750;10.570;2023-11-21T16:37:11;4.43;;;3.20;;
14778;SDS011;7481;53.750;10.570;2023-11-21T16:41:36;3.47;;;2.83;;
14778;SDS011;7481;53.750;10.570;2023-11-21T16:46:00;7.83;;;3.27;;
14778;SDS011;7481;53.750;10.570;2023-11-21T16:50:23;5.10;;;2.53;;
14778;SDS011;7481;53.750;10.570;2023-11-21T16:54:48;5.00;;;2.43;;
14778;SDS011;7481;53.750;10.570;2023-11-21T16:59:11;3.17;;;2.50;;
14778;SDS011;7481;53.750;10.570;2023-11-21T17:03:36;3.63;;;2.73;;
14778;SDS011;7481;53.750;10.570;2023-11-21T17:08:00;3.87;;;2.30;;
14778;SDS011;7481;53.750;10.570;2023-11-21T17:12:24;3.43;;;2.70;;
14778;SDS011;7481;53.750;10.570;2023-11-21T17:16:49;4.00;;;2.47;;
14778;SDS011;7481;53.750;10.570;2023-11-21T17:21:14;4.17;;;2.40;;
14778;SDS011;7481;53.750;10.570;2023-11-21T17:25:50;3.87;;;2.53;;
14778;SDS011;7481;53.750;10.570;2023-11-21T17:30:14;4.47;;;2.50;;
14778;SDS011;7481;53.750;10.570;2023-11-21T17:34:38;4.50;;;2.67;;
14778;SDS011;7481;53.750;10.570;2023-11-21T17:39:05;4.03;;;2.80;;
14778;SDS011;7481;53.750;10.570;2023-11-21T17:43:33;3.20;;;2.60;;
14778;SDS011;7481;53.750;10.570;2023-11-21T17:48:03;3.47;;;2.40;;
14778;SDS011;7481;53.750;10.570;2023-11-21T17:52:30;7.23;;;3.13;;
14778;SDS011;7481;53.750;10.570;2023-11-21T17:56:54;5.03;;;2.50;;
14778;SDS011;7481;53.750;10.570;2023-11-21T18:01:19;4.50;;;2.60;;
14778;SDS011;7481;53.750;10.570;2023-11-21T18:05:43;4.23;;;2.93;;
14778;SDS011;7481;53.750;10.570;2023-11-21T18:10:08;3.47;;;3.00;;
14778;SDS011;7481;53.750;10.570;2023-11-21T18:14:35;3.60;;;2.40;;
14778;SDS011;7481;53.750;10.570;2023-11-21T18:19:00;5.63;;;3.20;;
14778;SDS011;7481;53.750;10.570;2023-11-21T18:23:26;5.83;;;2.87;;
14778;SDS011;7481;53.750;10.570;2023-11-21T18:27:53;5.07;;;2.93;;
14778;SDS011;7481;53.750;10.570;2023-11-21T18:32:17;5.07;;;2.87;;
14778;SDS011;7481;53.750;10.570;2023-11-21T18:36:42;5.53;;;3.57;;
14778;SDS011;7481;53.750;10.570;2023-11-21T18:41:08;8.57;;;3.53;;
14778;SDS011;7481;53.750;10.570;2023-11-21T18:45:32;4.73;;;3.50;;
14778;SDS011;7481;53.750;10.570;2023-11-21T18:49:58;6.70;;;4.60;;
14778;SDS011;7481;53.750;10.570;2023-11-21T18:54:21;5.93;;;3.67;;
14778;SDS011;7481;53.750;10.570;2023-11-21T18:58:44;6.70;;;3.57;;
14778;SDS011;7481;53.750;10.570;2023-11-21T19:03:09;4.37;;;3.83;;
14778;SDS011;7481;53.750;10.570;2023-11-21T19:07:34;6.73;;;3.50;;
14778;SDS011;7481;53.750;10.570;2023-11-21T19:11:59;4.87;;;3.47;;
14778;SDS011;7481;53.750;10.570;2023-11-21T19:16:23;7.43;;;3.93;;
14778;SDS011;7481;53.750;10.570;2023-11-21T19:20:46;12.57;;;6.00;;
14778;SDS011;7481;53.750;10.570;2023-11-21T19:25:10;6.90;;;4.90;;
14778;SDS011;7481;53.750;10.570;2023-11-21T19:29:38;4.63;;;3.50;;
14778;SDS011;7481;53.750;10.570;2023-11-21T19:34:01;4.70;;;2.80;;
14778;SDS011;7481;53.750;10.570;2023-11-21T19:38:27;4.27;;;2.83;;
14778;SDS011;7481;53.750;10.570;2023-11-21T19:42:54;4.47;;;2.33;;
14778;SDS011;7481;53.750;10.570;2023-11-21T19:47:19;2.27;;;2.03;;
14778;SDS011;7481;53.750;10.570;2023-11-21T19:51:43;2.80;;;2.30;;
14778;SDS011;7481;53.750;10.570;2023-11-21T19:56:06;4.33;;;2.70;;
14778;SDS011;7481;53.750;10.570;2023-11-21T20:00:32;3.57;;;2.37;;
14778;SDS011;7481;53.750;10.570;2023-11-21T20:04:55;3.43;;;2.57;;
14778;SDS011;7481;53.750;10.570;2023-11-21T20:09:21;3.30;;;2.50;;
14778;SDS011;7481;53.750;10.570;2023-11-21T20:13:45;3.30;;;2.20;;
14778;SDS011;7481;53.750;10.570;2023-11-21T20:18:10;3.40;;;2.40;;
14778;SDS011;7481;53.750;10.570;2023-11-21T20:22:34;3.53;;;2.43;;
14778;SDS011;7481;53.750;10.570;2023-11-21T20:26:58;2.80;;;2.17;;
14778;SDS011;7481;53.750;10.570;2023-11-21T20:31:25;2.80;;;2.37;;
14778;SDS011;7481;53.750;10.570;2023-11-21T20:35:48;2.77;;;2.40;;
14778;SDS011;7481;53.750;10.570;2023-11-21T20:40:15;3.73;;;2.67;;
14778;SDS011;7481;53.750;10.570;2023-11-21T20:44:40;3.30;;;2.47;;
14778;SDS011;7481;53.750;10.570;2023-11-21T20:49:03;4.20;;;3.07;;
14778;SDS011;7481;53.750;10.570;2023-11-21T20:53:28;3.77;;;2.50;;
14778;SDS011;7481;53.750;10.570;2023-11-21T20:57:52;4.83;;;3.03;;
14778;SDS011;7481;53.750;10.570;2023-11-21T21:02:17;4.20;;;2.77;;
14778;SDS011;7481;53.750;10.570;2023-11-21T21:06:42;3.40;;;2.77;;
14778;SDS011;7481;53.750;10.570;2023-11-21T21:11:04;3.37;;;2.90;;
14778;SDS011;7481;53.750;10.570;2023-11-21T21:15:33;4.22;;;3.53;;
14778;SDS011;7481;53.750;10.570;2023-11-21T21:19:57;4.03;;;2.77;;
14778;SDS011;7481;53.750;10.570;2023-11-21T21:24:21;4.17;;;3.00;;
14778;SDS011;7481;53.750;10.570;2023-11-21T21:28:48;3.90;;;2.87;;
14778;SDS011;7481;53.750;10.570;2023-11-21T21:33:11;4.57;;;2.80;;
14778;SDS011;7481;53.750;10.570;2023-11-21T21:37:38;4.43;;;3.03;;
14778;SDS011;7481;53.750;10.570;2023-11-21T21:42:02;3.60;;;2.70;;
14778;SDS011;7481;53.750;10.570;2023-11-21T21:46:27;4.40;;;3.00;;
14778;SDS011;7481;53.750;10.570;2023-11-21T21:50:51;4.03;;;2.73;;
14778;SDS011;7481;53.750;10.570;2023-11-21T21:55:16;4.57;;;2.97;;
14778;SDS011;7481;53.750;10.570;2023-11-21T21:59:40;3.40;;;2.50;;
14778;SDS011;7481;53.750;10.570;2023-11-21T22:04:05;3.20;;;2.63;;
14778;SDS011;7481;53.750;10.570;2023-11-21T22:08:33;3.70;;;2.60;;
14778;SDS011;7481;53.750;10.570;2023-11-21T22:12:57;4.83;;;3.47;;
14778;SDS011;7481;53.750;10.570;2023-11-21T22:17:21;4.13;;;3.00;;
14778;SDS011;7481;53.750;10.570;2023-11-21T22:21:44;5.83;;;3.10;;
14778;SDS011;7481;53.750;10.570;2023-11-21T22:26:09;5.27;;;3.23;;
14778;SDS011;7481;53.750;10.570;2023-11-21T22:30:32;4.23;;;3.10;;
14778;SDS011;7481;53.750;10.570;2023-11-21T22:35:00;7.63;;;4.03;;
14778;SDS011;7481;53.750;10.570;2023-11-21T22:39:24;6.77;;;3.47;;
14778;SDS011;7481;53.750;10.570;2023-11-21T22:43:50;8.70;;;3.47;;
14778;SDS011;7481;53.750;10.570;2023-11-21T22:48:15;7.63;;;3.87;;
14778;SDS011;7481;53.750;10.570;2023-11-21T22:52:39;11.10;;;7.27;;
14778;SDS011;7481;53.750;10.570;2023-11-21T22:57:03;9.77;;;5.57;;
14778;SDS011;7481;53.750;10.570;2023-11-21T23:01:27;9.87;;;5.17;;
14778;SDS011;7481;53.750;10.570;2023-11-21T23:05:52;8.87;;;4.50;;
14778;SDS011;7481;53.750;10.570;2023-11-21T23:10:16;7.33;;;5.17;;
14778;SDS011;7481;53.750;10.570;2023-11-21T23:14:40;7.87;;;4.40;;
14778;SDS011;7481;53.750;10.570;2023-11-21T23:19:03;7.00;;;4.10;;
14778;SDS011;7481;53.750;10.570;2023-11-21T23:23:26;4.97;;;3.77;;
14778;SDS011;7481;53.750;10.570;2023-11-21T23:27:51;6.67;;;3.77;;
14778;SDS011;7481;53.750;10.570;2023-11-21T23:32:14;5.07;;;3.30;;
14778;SDS011;7481;53.750;10.570;2023-11-21T23:36:41;4.50;;;3.27;;
14778;SDS011;7481;53.750;10.570;2023-11-21T23:41:05;15.57;;;4.17;;
14778;SDS011;7481;53.750;10.570;2023-11-21T23:45:29;6.27;;;3.47;;
14778;SDS011;7481;53.750;10.570;2023-11-21T23:49:54;8.27;;;4.03;;
14778;SDS011;7481;53.750;10.570;2023-11-21T23:54:18;8.23;;;4.40;;
14778;SDS011;7481;53.750;10.570;2023-11-21T23:58:43;7.07;;;4.60;;
